Time;durP1;ratioP1;P1;durP2;ratioP2;P2;SDS_P1;SDS_P2;PMS_P1;PMS_P2;Temp;Humidity;BMP_temperature;BMP_pressure;BME280_temperature;BME280_humidity;BME280_pressure;Samples;Min_cycle;Max_cycle;Signal;HPM_P1;HPM_P2
2022/06/10 00:00:45;;;;;;;6.07;2.05;;;17.50;88.90;;;;;;5097830;28;20439;-60
2022/06/10 00:03:13;;;;;;;5.03;1.63;;;17.50;90.10;;;;;;5097478;28;20020;-63
2022/06/10 00:05:41;;;;;;;5.07;1.45;;;17.50;89.90;;;;;;5097594;28;20020;-65
2022/06/10 00:08:10;;;;;;;5.88;1.90;;;17.50;90.20;;;;;;5097563;28;20076;-60
2022/06/10 00:10:36;;;;;;;5.93;1.63;;;17.50;90.60;;;;;;5097490;28;20024;-61
2022/06/10 00:13:03;;;;;;;3.60;1.48;;;17.50;88.70;;;;;;5097467;28;20016;-60
2022/06/10 00:15:30;;;;;;;5.45;1.75;;;17.50;88.40;;;;;;5097455;28;20024;-59
2022/06/10 00:17:56;;;;;;;5.13;1.60;;;17.50;88.30;;;;;;5097421;28;20029;-60
2022/06/10 00:20:25;;;;;;;5.78;1.70;;;17.50;90.20;;;;;;5097609;28;20112;-67
2022/06/10 00:22:50;;;;;;;3.75;1.73;;;17.40;88.70;;;;;;5097583;28;20020;-67
2022/06/10 00:25:17;;;;;;;3.25;1.30;;;17.40;90.00;;;;;;5097402;28;20020;-60
2022/06/10 00:27:43;;;;;;;3.70;1.50;;;17.40;88.30;;;;;;5097141;28;20051;-60
2022/06/10 00:30:10;;;;;;;6.43;1.63;;;17.40;89.80;;;;;;5096724;28;20032;-66
2022/06/10 00:32:37;;;;;;;3.83;1.70;;;17.40;89.10;;;;;;5101464;28;20020;-59
2022/06/10 00:35:04;;;;;;;5.95;1.80;;;17.40;88.10;;;;;;5101950;28;20113;-61
2022/06/10 00:37:30;;;;;;;5.65;1.77;;;17.40;89.40;;;;;;5101452;28;20107;-64
2022/06/10 00:39:56;;;;;;;4.50;1.90;;;17.40;88.30;;;;;;5101343;28;20048;-60
2022/06/10 00:42:22;;;;;;;4.50;1.70;;;17.40;89.60;;;;;;5101498;28;20031;-60
2022/06/10 00:44:54;;;;;;;9.10;1.98;;;17.40;89.80;;;;;;5101714;28;20024;-60
2022/06/10 00:47:34;;;;;;;8.63;2.33;;;17.40;90.30;;;;;;5101222;28;20024;-60
2022/06/10 00:50:22;;;;;;;9.38;2.40;;;17.40;91.60;;;;;;5101328;28;20016;-60
2022/06/10 00:52:54;;;;;;;9.73;3.10;;;17.40;90.70;;;;;;5101134;28;20027;-60
2022/06/10 00:55:28;;;;;;;9.48;2.40;;;17.40;90.90;;;;;;5101071;28;20049;-60
2022/06/10 00:58:07;;;;;;;7.53;2.47;;;17.40;91.40;;;;;;5100631;28;20048;-61
2022/06/10 01:00:34;;;;;;;5.47;2.50;;;17.40;91.40;;;;;;5100977;28;20047;-60
2022/06/10 01:03:00;;;;;;;11.65;2.97;;;17.40;91.70;;;;;;5101005;28;20028;-60
2022/06/10 01:05:27;;;;;;;9.45;2.60;;;17.30;92.70;;;;;;5100871;28;20044;-60
2022/06/10 01:07:59;;;;;;;7.75;2.55;;;17.30;91.20;;;;;;5101053;28;20365;-60
2022/06/10 01:10:26;;;;;;;8.68;2.10;;;17.30;93.00;;;;;;5101022;28;20056;-60
2022/06/10 01:13:12;;;;;;;9.20;2.40;;;17.30;91.70;;;;;;5100899;28;20383;-59
2022/06/10 01:16:01;;;;;;;7.68;2.25;;;17.30;92.60;;;;;;5100884;28;20062;-60
2022/06/10 01:18:51;;;;;;;4.85;2.20;;;17.30;92.40;;;;;;5100318;28;20115;-60
2022/06/10 01:21:35;;;;;;;6.15;1.85;;;17.30;92.10;;;;;;5101028;28;20024;-60
2022/06/10 01:24:01;;;;;;;7.55;2.20;;;17.20;92.40;;;;;;5100499;28;20073;-60
2022/06/10 01:29:57;;;;;;;7.75;1.95;;;17.10;92.70;;;;;;5100224;28;20046;-66
2022/06/10 01:32:31;;;;;;;7.07;2.00;;;17.10;92.40;;;;;;5100239;28;20028;-63
2022/06/10 01:35:21;;;;;;;10.00;2.08;;;17.10;93.60;;;;;;5100097;28;20020;-60
2022/06/10 01:37:57;;;;;;;7.10;2.03;;;17.10;93.10;;;;;;5100254;28;20119;-60
2022/06/10 01:40:47;;;;;;;7.07;2.05;;;17.10;91.60;;;;;;5098738;28;20477;-60
2022/06/10 01:43:52;;;;;;;5.53;2.13;;;17.10;91.50;;;;;;5099616;28;20020;-60
2022/06/10 01:46:35;;;;;;;5.68;1.60;;;17.10;92.40;;;;;;5088144;28;20039;-60
2022/06/10 01:49:11;;;;;;;5.07;1.58;;;17.10;92.80;;;;;;5099786;28;20032;-60
2022/06/10 01:52:03;;;;;;;4.97;1.67;;;17.00;91.90;;;;;;5099950;28;20020;-64
2022/06/10 01:54:52;;;;;;;8.10;2.13;;;17.10;91.60;;;;;;5100103;28;20024;-60
2022/06/10 01:57:38;;;;;;;7.38;2.08;;;17.10;91.70;;;;;;5099920;28;20052;-59
2022/06/10 02:00:17;;;;;;;4.80;1.65;;;17.00;91.70;;;;;;5099590;28;20043;-60
2022/06/10 02:02:54;;;;;;;5.03;1.63;;;17.10;92.70;;;;;;5100047;28;20023;-60
2022/06/10 02:05:23;;;;;;;5.55;1.70;;;17.10;92.70;;;;;;5099809;28;20471;-60
2022/06/10 02:07:58;;;;;;;4.22;1.70;;;17.10;92.90;;;;;;5099925;28;20076;-64
2022/06/10 02:10:27;;;;;;;7.80;1.83;;;17.10;92.70;;;;;;5099876;28;20028;-69
2022/06/10 02:13:10;;;;;;;4.28;1.80;;;17.10;91.70;;;;;;5098395;28;20397;-60
2022/06/10 02:15:41;;;;;;;4.95;1.60;;;17.10;91.10;;;;;;5099596;28;20398;-60
2022/06/10 02:18:13;;;;;;;4.78;1.70;;;17.20;91.50;;;;;;5099601;28;20025;-63
2022/06/10 02:21:02;;;;;;;3.28;1.27;;;17.10;91.70;;;;;;5099646;28;20105;-60
2022/06/10 02:23:34;;;;;;;7.85;2.03;;;17.10;92.00;;;;;;5099545;28;20012;-60
2022/06/10 02:26:03;;;;;;;9.68;1.63;;;17.10;91.50;;;;;;5099341;28;20024;-60
2022/06/10 02:28:35;;;;;;;3.80;1.38;;;17.10;92.30;;;;;;5099398;28;20020;-60
2022/06/10 02:31:08;;;;;;;3.13;1.48;;;17.10;91.60;;;;;;5099195;28;20032;-61
2022/06/10 02:33:36;;;;;;;4.93;1.50;;;17.20;92.30;;;;;;5099098;28;20116;-60
2022/06/10 02:36:11;;;;;;;5.60;1.55;;;17.10;92.80;;;;;;5099135;28;20028;-60
2022/06/10 02:38:50;;;;;;;7.85;1.85;;;17.10;92.60;;;;;;5098778;28;20050;-60
2022/06/10 02:41:28;;;;;;;4.75;1.27;;;17.10;91.90;;;;;;5099214;28;20031;-60
2022/06/10 02:44:46;;;;;;;3.25;1.50;;;17.10;91.00;;;;;;5099164;28;20029;-63
2022/06/10 02:47:47;;;;;;;3.85;1.15;;;17.10;92.30;;;;;;5079240;28;20037;-68
2022/06/10 02:50:14;;;;;;;4.60;1.10;;;17.10;91.20;;;;;;5098792;28;20032;-60
2022/06/10 02:52:41;;;;;;;3.08;1.08;;;17.10;92.70;;;;;;5098855;28;20391;-60
2022/06/10 02:55:16;;;;;;;4.25;1.27;;;17.00;92.70;;;;;;5098749;28;20024;-60
2022/06/10 03:03:42;;;;;;;3.90;1.50;;;17.00;92.40;;;;;;5098799;28;20035;-60
2022/06/10 03:06:13;;;;;;;4.75;1.23;;;17.10;92.60;;;;;;5098607;28;20016;-60
2022/06/10 03:08:43;;;;;;;4.95;1.58;;;17.10;92.60;;;;;;5098533;28;20028;-60
2022/06/10 03:11:44;;;;;;;6.90;1.38;;;17.00;93.30;;;;;;5098721;28;20069;-60
2022/06/10 03:15:00;;;;;;;4.03;1.48;;;17.00;93.20;;;;;;5076155;28;20038;-60
2022/06/10 03:17:51;;;;;;;2.70;1.27;;;17.00;93.60;;;;;;5089105;28;20032;-60
2022/06/10 03:20:38;;;;;;;6.50;1.70;;;17.00;93.30;;;;;;5098502;28;20115;-62
2022/06/10 03:23:22;;;;;;;7.28;1.50;;;16.90;94.90;;;;;;5098492;28;20076;-66
2022/06/10 03:26:20;;;;;;;5.00;1.40;;;17.00;93.50;;;;;;5098284;28;20393;-63
2022/06/10 03:28:54;;;;;;;4.78;1.70;;;17.00;93.90;;;;;;5089361;28;20266;-66
2022/06/10 03:31:33;;;;;;;3.35;1.30;;;17.00;93.30;;;;;;5098362;28;20020;-67
2022/06/10 03:34:14;;;;;;;7.97;1.48;;;16.90;94.50;;;;;;5098137;28;20028;-60
2022/06/10 03:36:40;;;;;;;3.65;1.30;;;16.90;93.80;;;;;;5097839;28;20024;-60
2022/06/10 03:39:07;;;;;;;6.35;1.70;;;16.90;94.00;;;;;;5097882;28;20024;-60
2022/06/10 03:41:37;;;;;;;4.53;1.45;;;16.90;94.50;;;;;;5097914;28;20020;-62
2022/06/10 03:44:12;;;;;;;4.22;1.40;;;16.90;93.60;;;;;;5098269;28;20020;-66
2022/06/10 03:46:40;;;;;;;6.93;1.50;;;16.90;93.80;;;;;;5098304;28;20020;-60
2022/06/10 03:49:13;;;;;;;5.45;1.60;;;16.80;94.90;;;;;;5098042;28;20031;-60
2022/06/10 03:51:39;;;;;;;2.60;1.40;;;16.80;93.70;;;;;;5098219;28;20073;-60
2022/06/10 03:54:06;;;;;;;5.75;1.50;;;16.90;93.10;;;;;;5096454;28;20442;-60
2022/06/10 03:56:35;;;;;;;4.97;1.40;;;16.90;93.30;;;;;;5097888;28;20052;-60
2022/06/10 03:59:01;;;;;;;2.53;1.42;;;16.80;93.40;;;;;;5097758;28;20035;-59
2022/06/10 04:01:27;;;;;;;4.03;1.10;;;16.80;94.40;;;;;;5097651;28;20099;-60
2022/06/10 04:03:52;;;;;;;2.47;1.20;;;16.80;95.70;;;;;;5097619;28;20425;-60
2022/06/10 04:06:19;;;;;;;2.70;1.00;;;16.90;93.70;;;;;;5097418;28;20446;-60
2022/06/10 04:08:45;;;;;;;1.75;0.82;;;16.90;94.50;;;;;;5097777;28;20051;-60
2022/06/10 04:11:11;;;;;;;2.95;1.05;;;16.90;93.70;;;;;;5096121;28;20055;-60
2022/06/10 04:13:37;;;;;;;2.60;1.00;;;16.90;93.20;;;;;;5097767;28;20392;-60
2022/06/10 04:16:03;;;;;;;1.60;0.80;;;16.90;93.70;;;;;;5097500;28;20487;-59
2022/06/10 04:18:28;;;;;;;1.48;0.80;;;16.90;93.30;;;;;;5097439;28;20032;-66
2022/06/10 04:20:55;;;;;;;2.63;0.98;;;16.90;94.70;;;;;;5097412;28;20016;-60
2022/06/10 04:23:20;;;;;;;1.85;0.90;;;16.90;94.10;;;;;;5097633;28;20086;-63
2022/06/10 04:25:46;;;;;;;4.43;1.60;;;16.90;94.80;;;;;;5097339;28;20025;-60
2022/06/10 04:28:13;;;;;;;5.53;1.70;;;16.90;93.90;;;;;;5097582;28;20028;-62
2022/06/10 04:30:46;;;;;;;6.68;2.08;;;16.90;95.00;;;;;;5097612;28;20051;-62
2022/06/10 04:33:12;;;;;;;3.72;1.67;;;16.90;94.90;;;;;;5097539;28;20024;-60
2022/06/10 04:35:40;;;;;;;3.15;1.65;;;16.90;94.60;;;;;;5097421;28;20024;-59
2022/06/10 04:38:07;;;;;;;3.15;1.58;;;16.90;94.00;;;;;;5097826;28;20027;-63
2022/06/10 04:40:36;;;;;;;2.88;1.45;;;16.90;94.80;;;;;;5097077;28;20027;-62
2022/06/10 04:43:04;;;;;;;5.22;2.40;;;16.90;94.60;;;;;;5097235;28;20059;-68
2022/06/10 04:45:35;;;;;;;2.83;1.48;;;16.90;93.70;;;;;;5097222;28;20552;-59
2022/06/10 04:48:01;;;;;;;6.28;1.73;;;17.00;93.60;;;;;;5097437;28;20097;-61
2022/06/10 04:50:28;;;;;;;5.60;1.60;;;17.00;93.70;;;;;;5097322;28;20449;-60
2022/06/10 04:52:55;;;;;;;6.07;2.25;;;17.00;94.00;;;;;;5097129;28;20024;-60
2022/06/10 04:55:22;;;;;;;4.10;2.08;;;17.00;93.50;;;;;;5097024;28;20818;-60
2022/06/10 04:57:48;;;;;;;5.93;2.00;;;17.00;93.50;;;;;;5096842;28;20083;-60
2022/06/10 05:00:29;;;;;;;4.40;1.80;;;17.00;94.10;;;;;;5096980;28;20044;-60
2022/06/10 05:02:55;;;;;;;6.35;1.83;;;17.00;93.70;;;;;;5097050;28;20031;-60
2022/06/10 05:05:22;;;;;;;5.88;1.70;;;17.00;94.60;;;;;;5097208;28;20028;-60
2022/06/10 05:07:48;;;;;;;6.63;2.20;;;17.00;94.80;;;;;;5097001;28;20028;-59
2022/06/10 05:10:15;;;;;;;3.90;1.75;;;17.00;95.50;;;;;;5096885;28;20077;-60
2022/06/10 05:12:40;;;;;;;3.25;1.70;;;17.00;94.80;;;;;;5096814;28;20020;-59
2022/06/10 05:15:07;;;;;;;5.20;1.63;;;17.10;94.30;;;;;;5097184;28;20046;-60
2022/06/10 05:17:33;;;;;;;5.07;1.60;;;17.10;93.50;;;;;;5098032;28;20579;-63
2022/06/10 05:19:59;;;;;;;7.93;2.40;;;17.10;94.40;;;;;;5100864;28;20025;-60
2022/06/10 05:22:24;;;;;;;5.30;1.70;;;17.10;94.00;;;;;;5100373;28;20521;-59
2022/06/10 05:24:50;;;;;;;5.32;2.00;;;17.10;95.30;;;;;;5100552;28;20031;-60
2022/06/10 05:27:16;;;;;;;8.30;1.80;;;17.10;95.00;;;;;;5100547;28;20024;-58
2022/06/10 05:29:42;;;;;;;4.72;1.52;;;17.10;94.80;;;;;;5099353;28;20024;-58
2022/06/10 05:32:08;;;;;;;9.50;2.30;;;17.20;94.40;;;;;;5100539;28;20028;-59
2022/06/10 05:34:46;;;;;;;3.97;1.30;;;17.20;95.40;;;;;;5100632;28;20024;-58
2022/06/10 05:37:18;;;;;;;6.10;1.70;;;17.20;94.30;;;;;;5099983;28;20114;-59
2022/06/10 05:39:44;;;;;;;4.95;1.80;;;17.20;93.70;;;;;;5100222;28;20024;-60
2022/06/10 05:42:11;;;;;;;5.00;1.80;;;17.30;93.60;;;;;;5100353;28;20081;-59
2022/06/10 05:44:39;;;;;;;2.47;1.17;;;17.30;94.00;;;;;;5100394;28;20077;-59
2022/06/10 05:47:07;;;;;;;2.67;0.85;;;17.30;93.30;;;;;;5100458;28;20035;-59
2022/06/10 05:49:34;;;;;;;5.63;1.83;;;17.30;93.80;;;;;;5099861;28;20071;-59
2022/06/10 05:52:01;;;;;;;6.80;1.70;;;17.20;93.50;;;;;;5099949;28;20115;-60
2022/06/10 05:54:26;;;;;;;5.68;1.80;;;17.30;94.30;;;;;;5100043;28;20515;-60
2022/06/10 05:56:52;;;;;;;4.68;2.13;;;17.20;95.00;;;;;;5099643;28;20048;-59
2022/06/10 05:59:18;;;;;;;4.07;1.75;;;17.20;94.90;;;;;;5099603;28;20020;-60
2022/06/10 06:01:45;;;;;;;3.97;1.25;;;17.20;94.50;;;;;;5099978;28;20020;-59
2022/06/10 06:04:11;;;;;;;5.53;1.52;;;17.20;94.70;;;;;;5099668;28;20024;-59
2022/06/10 06:06:37;;;;;;;3.75;1.30;;;17.20;95.10;;;;;;5099993;28;20024;-59
2022/06/10 06:09:03;;;;;;;2.45;1.20;;;17.10;95.10;;;;;;5099683;28;20054;-60
2022/06/10 06:11:29;;;;;;;3.13;1.17;;;17.20;94.60;;;;;;5099764;28;20032;-59
2022/06/10 06:13:57;;;;;;;4.63;1.73;;;17.10;94.70;;;;;;5099540;28;20518;-59
2022/06/10 06:16:24;;;;;;;2.70;1.27;;;17.10;95.00;;;;;;5099658;28;20028;-59
2022/06/10 06:18:51;;;;;;;3.05;1.60;;;17.10;95.10;;;;;;5099551;28;20020;-59
2022/06/10 06:21:17;;;;;;;2.95;1.50;;;17.20;94.00;;;;;;5099774;28;20024;-58
2022/06/10 06:23:42;;;;;;;3.80;1.50;;;17.30;93.70;;;;;;5099289;28;20149;-59
2022/06/10 06:26:14;;;;;;;3.92;1.48;;;17.30;93.70;;;;;;5098254;28;20028;-59
2022/06/10 06:28:40;;;;;;;2.95;1.40;;;17.30;94.40;;;;;;5098999;28;20089;-60
2022/06/10 06:31:06;;;;;;;5.10;1.70;;;17.40;94.20;;;;;;5099093;28;20407;-59
2022/06/10 06:33:32;;;;;;;3.60;1.40;;;17.40;94.30;;;;;;5098825;28;20024;-59
2022/06/10 06:35:57;;;;;;;4.95;1.80;;;17.40;93.90;;;;;;5097839;28;20035;-59
2022/06/10 06:38:29;;;;;;;4.18;1.50;;;17.40;93.40;;;;;;5098949;28;20425;-59
2022/06/10 06:40:55;;;;;;;4.07;1.40;;;17.40;92.90;;;;;;5098973;28;20028;-59
2022/06/10 06:43:20;;;;;;;4.18;1.30;;;17.30;93.40;;;;;;5098775;28;20031;-59
2022/06/10 06:45:46;;;;;;;5.95;1.30;;;17.40;93.50;;;;;;5098857;28;20050;-59
2022/06/10 06:48:12;;;;;;;5.13;1.55;;;17.40;93.40;;;;;;5099041;28;20043;-59
2022/06/10 06:50:48;;;;;;;6.60;1.92;;;17.50;93.90;;;;;;5099713;28;20032;-59
2022/06/10 06:53:14;;;;;;;2.72;1.60;;;17.50;93.00;;;;;;5099033;28;20024;-62
2022/06/10 06:55:41;;;;;;;4.45;1.90;;;17.50;93.20;;;;;;5098683;28;20494;-59
2022/06/10 06:58:10;;;;;;;6.10;2.03;;;17.60;92.90;;;;;;5098330;28;20415;-59
2022/06/10 07:00:36;;;;;;;7.35;1.85;;;17.70;92.90;;;;;;5098995;28;20024;-59
2022/06/10 07:03:03;;;;;;;3.72;1.70;;;17.80;92.70;;;;;;5098685;28;20098;-59
2022/06/10 07:05:29;;;;;;;6.47;2.13;;;17.80;92.50;;;;;;5098585;28;20023;-60
2022/06/10 07:07:55;;;;;;;6.43;2.28;;;17.90;92.70;;;;;;5098208;28;20024;-59
2022/06/10 07:10:22;;;;;;;6.13;1.92;;;18.00;92.90;;;;;;5098324;28;20116;-59
2022/06/10 07:12:48;;;;;;;4.80;2.13;;;18.10;92.70;;;;;;5098648;28;20020;-59
2022/06/10 07:15:15;;;;;;;6.53;2.17;;;18.10;92.40;;;;;;5098251;28;20060;-59
2022/06/10 07:17:41;;;;;;;5.80;1.90;;;18.20;92.80;;;;;;5098199;28;20055;-60
2022/06/10 07:20:10;;;;;;;7.05;2.00;;;18.20;92.40;;;;;;5098183;28;20025;-60
2022/06/10 07:22:36;;;;;;;9.13;2.75;;;18.30;92.30;;;;;;5098336;28;20018;-60
2022/06/10 07:25:02;;;;;;;8.20;2.10;;;18.30;92.10;;;;;;5098182;28;20028;-61
2022/06/10 07:27:28;;;;;;;4.55;1.83;;;18.40;92.20;;;;;;5098083;28;20016;-60
2022/06/10 07:29:54;;;;;;;6.03;2.08;;;18.40;91.60;;;;;;5098123;28;20032;-66
2022/06/10 07:32:20;;;;;;;6.57;2.03;;;18.40;91.70;;;;;;5098509;28;20035;-60
2022/06/10 07:34:45;;;;;;;6.28;2.30;;;18.30;91.70;;;;;;5098239;28;20051;-60
2022/06/10 07:37:11;;;;;;;7.80;2.05;;;18.30;91.80;;;;;;5098226;28;20034;-61
2022/06/10 07:39:37;;;;;;;6.60;2.10;;;18.40;91.80;;;;;;5097253;28;20032;-59
2022/06/10 07:42:04;;;;;;;7.65;2.22;;;18.40;91.80;;;;;;5098053;28;20019;-63
2022/06/10 07:44:33;;;;;;;8.20;1.90;;;18.40;91.80;;;;;;5098032;28;20376;-59
2022/06/10 07:47:01;;;;;;;6.43;2.13;;;18.40;91.90;;;;;;5097875;28;20016;-60
2022/06/10 07:49:27;;;;;;;6.25;2.10;;;18.40;92.00;;;;;;5097973;28;20020;-60
2022/06/10 07:51:53;;;;;;;6.65;2.65;;;18.50;92.30;;;;;;5097697;28;20364;-69
2022/06/10 07:54:19;;;;;;;5.93;2.30;;;18.60;92.10;;;;;;5097928;28;20111;-59
2022/06/10 07:56:45;;;;;;;7.97;2.75;;;18.70;92.40;;;;;;5097502;28;20072;-60
2022/06/10 07:59:12;;;;;;;21.08;12.18;;;18.80;91.60;;;;;;5097750;28;20461;-60
2022/06/10 08:01:39;;;;;;;50.05;26.45;;;18.70;91.40;;;;;;5097537;28;20111;-60
2022/06/10 08:04:08;;;;;;;57.88;30.95;;;18.60;91.70;;;;;;5098049;28;20059;-60
2022/06/10 08:06:37;;;;;;;138.15;70.57;;;18.60;92.10;;;;;;5097457;28;20024;-66
2022/06/10 08:09:03;;;;;;;109.95;57.83;;;18.70;92.20;;;;;;5097489;28;20024;-59
2022/06/10 08:11:29;;;;;;;115.57;63.95;;;18.70;92.00;;;;;;5097526;28;20024;-66
2022/06/10 08:13:55;;;;;;;109.65;60.20;;;18.60;92.30;;;;;;5097557;28;20482;-63
2022/06/10 08:16:22;;;;;;;396.42;203.77;;;18.60;92.60;;;;;;5097421;28;20047;-59
2022/06/10 08:18:49;;;;;;;351.02;194.10;;;18.70;92.50;;;;;;5097470;28;20035;-59
2022/06/10 08:24:01;;;;;;;72.47;39.65;;;18.70;92.70;;;;;;5097613;28;20062;-59
2022/06/10 08:26:28;;;;;;;123.80;68.43;;;18.80;92.60;;;;;;5097299;28;20106;-69
2022/06/10 08:28:54;;;;;;;55.20;31.15;;;18.80;92.50;;;;;;5097327;28;20025;-59
2022/06/10 08:31:21;;;;;;;39.05;22.83;;;18.90;92.20;;;;;;5096759;28;20478;-59
2022/06/10 08:33:47;;;;;;;49.90;31.63;;;18.90;92.50;;;;;;5096514;28;20024;-58
2022/06/10 08:36:13;;;;;;;19.60;10.73;;;18.90;92.30;;;;;;5097633;28;20169;-59
2022/06/10 08:38:42;;;;;;;11.63;5.50;;;19.00;91.90;;;;;;5097278;28;20055;-59
2022/06/10 08:41:21;;;;;;;13.13;5.47;;;19.00;92.00;;;;;;5097223;28;20020;-59
2022/06/10 08:44:10;;;;;;;9.90;4.85;;;19.10;92.20;;;;;;5097266;28;20028;-59
2022/06/10 08:46:54;;;;;;;13.63;7.20;;;19.00;91.90;;;;;;5097493;28;20024;-58
2022/06/10 08:49:49;;;;;;;;;;;19.10;92.10;;;;;;5097427;28;20028;-58
2022/06/10 08:52:57;;;;;;;27.65;16.40;;;19.20;92.20;;;;;;5079832;28;19908;-61
2022/06/10 08:56:03;;;;;;;37.63;21.90;;;19.20;92.10;;;;;;5097831;28;20418;-59
2022/06/10 08:58:39;;;;;;;38.25;23.02;;;19.40;92.00;;;;;;5097401;28;20044;-61
2022/06/10 09:01:14;;;;;;;27.67;14.70;;;19.50;91.60;;;;;;5100929;28;20553;-61
2022/06/10 09:03:49;;;;;;;21.38;12.10;;;19.70;91.50;;;;;;5101176;28;20021;-60
2022/06/10 09:06:48;;;;;;;62.47;34.42;;;19.80;91.00;;;;;;5100794;28;20504;-60
2022/06/10 09:09:16;;;;;;;21.05;10.45;;;19.70;90.50;;;;;;5098989;28;20036;-61
2022/06/10 09:11:51;;;;;;;21.67;12.10;;;19.80;90.80;;;;;;5101083;28;20427;-61
2022/06/10 09:14:18;;;;;;;16.23;8.35;;;19.90;90.70;;;;;;5100392;28;20056;-60
2022/06/10 09:16:59;;;;;;;29.02;15.85;;;20.00;90.20;;;;;;5100826;28;20023;-61
2022/06/10 09:19:47;;;;;;;20.52;11.45;;;20.10;89.10;;;;;;5100410;28;20020;-62
2022/06/10 09:22:23;;;;;;;59.30;35.67;;;20.10;87.40;;;;;;5100416;28;20103;-60
2022/06/10 09:25:08;;;;;;;29.42;18.70;;;20.10;87.70;;;;;;5100541;28;20384;-61
2022/06/10 09:27:38;;;;;;;17.55;9.27;;;20.10;88.00;;;;;;5100279;28;20024;-61
2022/06/10 09:30:08;;;;;;;30.42;16.90;;;20.10;87.30;;;;;;5100471;28;20012;-60
2022/06/10 09:32:43;;;;;;;37.70;19.70;;;20.10;87.70;;;;;;5100195;28;20507;-60
2022/06/10 09:35:16;;;;;;;20.13;10.05;;;20.20;88.20;;;;;;5100581;28;20050;-60
2022/06/10 09:38:17;;;;;;;18.33;8.90;;;20.30;87.10;;;;;;5100393;28;20150;-61
2022/06/10 09:40:54;;;;;;;20.58;10.77;;;20.20;87.50;;;;;;5099821;28;20032;-61
2022/06/10 09:43:30;;;;;;;23.98;14.35;;;20.20;87.40;;;;;;5099938;28;20418;-61
2022/06/10 09:46:08;;;;;;;29.85;14.23;;;20.30;88.90;;;;;;5099977;28;20020;-60
2022/06/10 09:48:50;;;;;;;31.63;16.48;;;20.50;88.10;;;;;;5100007;28;20498;-61
2022/06/10 09:51:34;;;;;;;32.78;20.20;;;20.60;85.20;;;;;;5100328;28;20039;-60
2022/06/10 09:54:19;;;;;;;35.38;21.48;;;20.60;87.60;;;;;;5100333;28;20093;-60
2022/06/10 09:56:50;;;;;;;21.73;11.68;;;20.80;86.40;;;;;;5100046;28;20147;-60
2022/06/10 09:59:28;;;;;;;38.13;22.35;;;20.70;85.20;;;;;;5099916;28;20024;-60
2022/06/10 10:02:12;;;;;;;18.95;11.70;;;20.70;85.80;;;;;;5100133;28;20157;-60
2022/06/10 10:04:56;;;;;;;;;;;20.70;84.70;;;;;;5099905;28;20048;-63
2022/06/10 10:07:27;;;;;;;9.50;3.75;;;20.70;86.50;;;;;;5099651;28;19904;-67
2022/06/10 10:10:14;;;;;;;15.45;8.68;;;20.70;85.30;;;;;;5099725;28;20085;-66
2022/06/10 10:12:59;;;;;;;14.68;6.40;;;20.70;86.70;;;;;;5099536;28;20024;-66
2022/06/10 10:15:33;;;;;;;5.95;1.92;;;20.80;86.30;;;;;;5099722;28;20032;-66
2022/06/10 10:18:37;;;;;;;6.63;2.30;;;20.90;84.90;;;;;;5099711;28;20085;-69
2022/06/10 10:21:02;;;;;;;5.47;2.10;;;20.80;84.80;;;;;;5099524;28;20107;-66
2022/06/10 10:23:36;;;;;;;9.68;3.10;;;20.80;84.70;;;;;;5099339;28;20412;-67
2022/06/10 10:26:20;;;;;;;13.60;4.30;;;20.70;84.40;;;;;;5098148;28;20020;-66
2022/06/10 10:28:48;;;;;;;5.93;2.30;;;20.50;83.70;;;;;;5099437;28;20507;-66
2022/06/10 10:31:27;;;;;;;15.15;6.75;;;20.40;84.80;;;;;;5099240;28;20399;-66
2022/06/10 10:33:53;;;;;;;13.48;4.45;;;20.30;85.50;;;;;;5099185;28;20519;-67
2022/06/10 10:36:28;;;;;;;13.05;5.80;;;20.10;86.80;;;;;;5099542;28;20028;-67
2022/06/10 10:38:54;;;;;;;18.00;9.25;;;20.20;87.50;;;;;;5099124;28;20052;-66
2022/06/10 10:41:42;;;;;;;27.52;13.95;;;20.20;86.90;;;;;;5099162;28;20391;-66
2022/06/10 10:44:32;;;;;;;41.70;23.55;;;20.30;85.80;;;;;;5098705;28;20020;-67
2022/06/10 10:47:00;;;;;;;28.40;15.82;;;20.40;86.50;;;;;;5098855;28;20073;-66
2022/06/10 10:49:32;;;;;;;23.20;12.20;;;20.40;85.80;;;;;;5098987;28;20490;-66
2022/06/10 10:51:58;;;;;;;25.98;13.13;;;20.40;86.00;;;;;;5099184;28;20107;-67
2022/06/10 10:54:27;;;;;;;30.98;18.73;;;20.30;85.10;;;;;;5098937;28;20020;-67
2022/06/10 10:56:54;;;;;;;27.33;13.77;;;20.30;86.20;;;;;;5098541;28;20388;-67
2022/06/10 10:59:36;;;;;;;25.10;15.43;;;20.20;85.50;;;;;;5098835;28;20109;-67
2022/06/10 11:02:31;;;;;;;20.00;12.93;;;20.30;86.20;;;;;;5097165;28;20483;-67
2022/06/10 11:05:26;;;;;;;19.63;10.35;;;20.30;86.40;;;;;;5098363;28;20024;-67
2022/06/10 11:08:32;;;;;;;24.08;13.85;;;20.40;86.70;;;;;;5098614;28;20074;-66
2022/06/10 11:11:14;;;;;;;27.50;15.10;;;20.40;84.20;;;;;;5098601;28;20051;-66
2022/06/10 11:13:51;;;;;;;17.30;9.55;;;20.30;84.20;;;;;;5098160;28;20025;-67
2022/06/10 11:16:18;;;;;;;17.15;9.18;;;20.10;86.00;;;;;;5097469;28;20439;-59
2022/06/10 11:18:48;;;;;;;17.95;9.93;;;20.00;86.80;;;;;;5096748;28;20472;-58
2022/06/10 11:21:14;;;;;;;14.60;7.13;;;20.00;87.00;;;;;;5098640;28;20024;-58
2022/06/10 11:23:54;;;;;;;16.88;6.03;;;20.00;86.40;;;;;;5098224;28;20150;-59
2022/06/10 11:26:22;;;;;;;20.25;9.30;;;19.90;86.40;;;;;;5096745;28;20065;-59
2022/06/10 11:28:55;;;;;;;25.20;11.63;;;20.00;87.20;;;;;;5098624;28;20032;-59
2022/06/10 11:31:34;;;;;;;44.63;27.30;;;20.20;85.80;;;;;;5099196;28;20081;-59
2022/06/10 11:34:01;;;;;;;24.13;11.55;;;20.30;86.40;;;;;;5098244;28;20028;-59
2022/06/10 11:36:35;;;;;;;18.30;9.43;;;20.40;85.40;;;;;;5097720;28;20051;-61
2022/06/10 11:39:22;;;;;;;16.15;7.90;;;20.50;85.70;;;;;;5098087;28;20068;-61
2022/06/10 11:42:07;;;;;;;11.15;4.80;;;20.30;84.50;;;;;;5098311;28;20517;-59
2022/06/10 11:44:56;;;;;;;15.25;7.50;;;20.10;85.10;;;;;;5097256;28;20817;-59
2022/06/10 11:47:31;;;;;;;16.83;5.63;;;20.10;85.80;;;;;;5097598;28;20027;-59
2022/06/10 11:50:03;;;;;;;13.70;6.78;;;20.10;85.00;;;;;;5097957;28;20028;-59
2022/06/10 11:52:32;;;;;;;10.05;4.53;;;19.90;86.50;;;;;;5097813;28;20028;-59
2022/06/10 11:55:18;;;;;;;7.65;2.55;;;20.10;87.20;;;;;;5098249;28;20107;-66
2022/06/10 12:00:41;;;;;;;7.72;3.13;;;20.40;85.90;;;;;;5098362;28;20104;-59
2022/06/10 12:03:18;;;;;;;6.68;2.70;;;20.40;83.90;;;;;;5098281;28;20020;-62
2022/06/10 12:06:03;;;;;;;8.15;3.03;;;20.50;85.40;;;;;;5097936;28;20024;-59
2022/06/10 12:08:42;;;;;;;7.82;3.00;;;20.50;85.70;;;;;;5098229;28;20020;-63
2022/06/10 12:11:23;;;;;;;10.45;3.45;;;20.60;85.30;;;;;;5099127;28;20032;-58
2022/06/10 12:14:04;;;;;;;7.93;2.78;;;20.80;84.30;;;;;;5099253;28;20016;-58
2022/06/10 12:16:31;;;;;;;8.77;2.78;;;20.60;83.10;;;;;;5098170;28;20024;-59
2022/06/10 12:19:00;;;;;;;11.32;4.80;;;20.60;83.30;;;;;;5098542;28;20051;-60
2022/06/10 12:21:28;;;;;;;6.60;2.58;;;20.60;84.60;;;;;;5098024;28;20025;-59
2022/06/10 12:23:54;;;;;;;8.15;2.92;;;20.50;83.40;;;;;;5098817;28;20031;-61
2022/06/10 12:26:49;;;;;;;7.70;3.03;;;20.70;85.20;;;;;;5099462;28;20461;-60
2022/06/10 12:29:27;;;;;;;12.60;3.47;;;20.90;85.40;;;;;;5102256;28;20024;-65
2022/06/10 12:32:02;;;;;;;9.90;2.67;;;21.10;83.80;;;;;;5101844;28;20375;-60
2022/06/10 12:34:56;;;;;;;8.18;2.55;;;21.10;81.30;;;;;;5101930;28;20498;-59
2022/06/10 12:37:22;;;;;;;4.38;1.92;;;21.20;81.00;;;;;;5101145;28;20020;-59
2022/06/10 12:40:08;;;;;;;7.22;2.08;;;21.20;82.90;;;;;;5102145;28;20625;-59
2022/06/10 12:42:57;;;;;;;8.80;2.53;;;21.20;83.20;;;;;;5101696;28;20024;-58
2022/06/10 12:45:39;;;;;;;7.60;2.38;;;21.30;82.10;;;;;;5102895;28;20020;-59
2022/06/10 12:48:29;;;;;;;6.20;2.28;;;21.30;81.30;;;;;;5102418;28;20031;-59
2022/06/10 12:51:13;;;;;;;6.35;2.25;;;21.10;79.10;;;;;;5102462;28;20388;-59
2022/06/10 12:53:56;;;;;;;9.38;2.70;;;21.00;82.20;;;;;;5102857;28;20024;-58
2022/06/10 12:56:22;;;;;;;8.38;3.67;;;21.00;83.00;;;;;;5102519;28;20135;-59
2022/06/10 12:59:20;;;;;;;7.80;2.80;;;20.90;82.60;;;;;;5102542;28;20060;-59
2022/06/10 13:01:47;;;;;;;14.23;5.45;;;20.90;82.10;;;;;;5102017;28;20024;-58
2022/06/10 13:04:25;;;;;;;16.58;8.18;;;20.90;83.40;;;;;;5102384;28;20493;-59
2022/06/10 13:07:25;;;;;;;8.75;4.60;;;21.00;83.50;;;;;;5102107;28;20124;-59
2022/06/10 13:09:51;;;;;;;7.57;2.53;;;21.10;82.60;;;;;;5102257;28;20024;-59
2022/06/10 13:12:16;;;;;;;9.18;3.67;;;21.10;81.40;;;;;;5102122;28;20027;-59
2022/06/10 13:14:47;;;;;;;12.13;5.07;;;21.00;81.60;;;;;;5102504;28;20430;-59
2022/06/10 13:17:17;;;;;;;13.48;6.03;;;21.00;81.60;;;;;;5102344;28;20020;-59
2022/06/10 13:19:56;;;;;;;13.32;6.68;;;21.00;81.80;;;;;;5102016;28;20035;-59
2022/06/10 13:22:22;;;;;;;11.07;5.45;;;20.80;80.90;;;;;;5102361;28;20024;-59
2022/06/10 13:24:54;;;;;;;11.40;3.55;;;20.60;82.10;;;;;;5100480;28;20429;-60
2022/06/10 13:27:28;;;;;;;13.18;5.30;;;20.50;83.00;;;;;;5100231;28;20044;-59
2022/06/10 13:29:59;;;;;;;10.40;4.25;;;20.50;83.90;;;;;;5100546;28;20049;-59